sensor_id;sensor_type;location;lat;lon;timestamp;P1;durP1;ratioP1;P2;durP2;ratioP2
69981;SDS011;57319;56.274;43.980;2022-08-07T00:00:53;9.02;;;4.32;;
69981;SDS011;57319;56.274;43.980;2022-08-07T00:03:19;10.85;;;4.43;;
69981;SDS011;57319;56.274;43.980;2022-08-07T00:05:45;8.43;;;5.28;;
69981;SDS011;57319;56.274;43.980;2022-08-07T00:08:10;17.10;;;4.63;;
69981;SDS011;57319;56.274;43.980;2022-08-07T00:10:36;8.75;;;4.45;;
69981;SDS011;57319;56.274;43.980;2022-08-07T00:13:03;7.03;;;4.40;;
69981;SDS011;57319;56.274;43.980;2022-08-07T00:15:30;7.05;;;4.45;;
69981;SDS011;57319;56.274;43.980;2022-08-07T00:17:56;9.32;;;4.60;;
69981;SDS011;57319;56.274;43.980;2022-08-07T00:20:22;8.20;;;4.32;;
69981;SDS011;57319;56.274;43.980;2022-08-07T00:22:48;6.65;;;4.07;;
69981;SDS011;57319;56.274;43.980;2022-08-07T00:25:14;9.35;;;4.47;;
69981;SDS011;57319;56.274;43.980;2022-08-07T00:27:39;9.88;;;4.28;;
69981;SDS011;57319;56.274;43.980;2022-08-07T00:30:05;4.30;;;3.90;;
69981;SDS011;57319;56.274;43.980;2022-08-07T00:32:31;13.43;;;4.53;;
69981;SDS011;57319;56.274;43.980;2022-08-07T00:34:56;8.65;;;4.30;;
69981;SDS011;57319;56.274;43.980;2022-08-07T00:37:22;5.00;;;3.95;;
69981;SDS011;57319;56.274;43.980;2022-08-07T00:39:49;6.03;;;4.22;;
69981;SDS011;57319;56.274;43.980;2022-08-07T00:42:14;14.50;;;4.63;;
69981;SDS011;57319;56.274;43.980;2022-08-07T00:44:40;5.30;;;4.45;;
69981;SDS011;57319;56.274;43.980;2022-08-07T00:47:06;4.78;;;3.97;;
69981;SDS011;57319;56.274;43.980;2022-08-07T00:49:33;6.07;;;4.40;;
69981;SDS011;57319;56.274;43.980;2022-08-07T00:51:58;7.05;;;4.20;;
69981;SDS011;57319;56.274;43.980;2022-08-07T00:54:24;11.80;;;3.85;;
69981;SDS011;57319;56.274;43.980;2022-08-07T00:56:50;6.22;;;4.25;;
69981;SDS011;57319;56.274;43.980;2022-08-07T00:59:16;7.38;;;4.55;;
69981;SDS011;57319;56.274;43.980;2022-08-07T01:01:43;7.82;;;4.03;;
69981;SDS011;57319;56.274;43.980;2022-08-07T01:04:09;18.38;;;4.70;;
69981;SDS011;57319;56.274;43.980;2022-08-07T01:06:35;4.72;;;4.32;;
69981;SDS011;57319;56.274;43.980;2022-08-07T01:09:01;7.10;;;4.00;;
69981;SDS011;57319;56.274;43.980;2022-08-07T01:11:29;5.18;;;4.18;;
69981;SDS011;57319;56.274;43.980;2022-08-07T01:13:55;6.63;;;4.53;;
69981;SDS011;57319;56.274;43.980;2022-08-07T01:16:21;9.55;;;4.40;;
69981;SDS011;57319;56.274;43.980;2022-08-07T01:18:47;16.60;;;4.35;;
69981;SDS011;57319;56.274;43.980;2022-08-07T01:21:14;4.90;;;4.35;;
69981;SDS011;57319;56.274;43.980;2022-08-07T01:23:42;6.05;;;4.10;;
69981;SDS011;57319;56.274;43.980;2022-08-07T01:26:10;4.88;;;4.03;;
69981;SDS011;57319;56.274;43.980;2022-08-07T01:28:38;13.57;;;5.25;;
69981;SDS011;57319;56.274;43.980;2022-08-07T01:31:05;7.82;;;4.65;;
69981;SDS011;57319;56.274;43.980;2022-08-07T01:33:32;4.55;;;4.07;;
69981;SDS011;57319;56.274;43.980;2022-08-07T01:35:58;6.93;;;4.00;;
69981;SDS011;57319;56.274;43.980;2022-08-07T01:38:24;8.70;;;4.03;;
69981;SDS011;57319;56.274;43.980;2022-08-07T01:40:56;4.70;;;4.30;;
69981;SDS011;57319;56.274;43.980;2022-08-07T01:43:23;13.55;;;4.55;;
69981;SDS011;57319;56.274;43.980;2022-08-07T01:45:50;11.00;;;4.20;;
69981;SDS011;57319;56.274;43.980;2022-08-07T01:48:17;14.05;;;4.45;;
69981;SDS011;57319;56.274;43.980;2022-08-07T01:50:45;4.68;;;4.30;;
69981;SDS011;57319;56.274;43.980;2022-08-07T01:53:14;6.32;;;4.30;;
69981;SDS011;57319;56.274;43.980;2022-08-07T01:55:44;9.80;;;4.13;;
69981;SDS011;57319;56.274;43.980;2022-08-07T01:58:13;8.23;;;4.22;;
69981;SDS011;57319;56.274;43.980;2022-08-07T02:00:42;4.50;;;4.10;;
69981;SDS011;57319;56.274;43.980;2022-08-07T02:03:11;4.63;;;3.97;;
69981;SDS011;57319;56.274;43.980;2022-08-07T02:05:50;5.20;;;3.92;;
69981;SDS011;57319;56.274;43.980;2022-08-07T02:08:21;4.00;;;3.80;;
69981;SDS011;57319;56.274;43.980;2022-08-07T02:10:48;4.25;;;3.35;;
69981;SDS011;57319;56.274;43.980;2022-08-07T02:13:37;9.55;;;3.33;;
69981;SDS011;57319;56.274;43.980;2022-08-07T02:16:04;8.80;;;3.72;;
69981;SDS011;57319;56.274;43.980;2022-08-07T02:18:33;14.02;;;3.70;;
69981;SDS011;57319;56.274;43.980;2022-08-07T02:21:03;5.70;;;3.60;;
69981;SDS011;57319;56.274;43.980;2022-08-07T02:23:33;6.72;;;3.85;;
69981;SDS011;57319;56.274;43.980;2022-08-07T02:26:00;3.95;;;3.65;;
69981;SDS011;57319;56.274;43.980;2022-08-07T02:28:29;12.38;;;4.38;;
69981;SDS011;57319;56.274;43.980;2022-08-07T02:30:57;5.40;;;3.40;;
69981;SDS011;57319;56.274;43.980;2022-08-07T02:33:26;4.70;;;3.80;;
69981;SDS011;57319;56.274;43.980;2022-08-07T02:35:52;4.22;;;3.47;;
69981;SDS011;57319;56.274;43.980;2022-08-07T02:38:20;6.57;;;3.80;;
69981;SDS011;57319;56.274;43.980;2022-08-07T02:40:49;10.60;;;4.00;;
69981;SDS011;57319;56.274;43.980;2022-08-07T02:43:16;4.70;;;3.40;;
69981;SDS011;57319;56.274;43.980;2022-08-07T02:45:42;13.43;;;3.90;;
69981;SDS011;57319;56.274;43.980;2022-08-07T02:48:09;6.20;;;4.22;;
69981;SDS011;57319;56.274;43.980;2022-08-07T02:50:38;4.43;;;4.05;;
69981;SDS011;57319;56.274;43.980;2022-08-07T02:53:08;6.63;;;3.88;;
69981;SDS011;57319;56.274;43.980;2022-08-07T02:55:37;6.30;;;3.65;;
69981;SDS011;57319;56.274;43.980;2022-08-07T02:58:09;4.22;;;3.80;;
69981;SDS011;57319;56.274;43.980;2022-08-07T03:00:37;8.13;;;4.75;;
69981;SDS011;57319;56.274;43.980;2022-08-07T03:03:05;7.38;;;3.85;;
69981;SDS011;57319;56.274;43.980;2022-08-07T03:05:32;9.48;;;4.22;;
69981;SDS011;57319;56.274;43.980;2022-08-07T03:08:00;4.15;;;3.72;;
69981;SDS011;57319;56.274;43.980;2022-08-07T03:10:27;6.75;;;3.88;;
69981;SDS011;57319;56.274;43.980;2022-08-07T03:12:53;5.43;;;3.75;;
69981;SDS011;57319;56.274;43.980;2022-08-07T03:15:19;11.98;;;3.67;;
69981;SDS011;57319;56.274;43.980;2022-08-07T03:17:45;8.38;;;5.30;;
69981;SDS011;57319;56.274;43.980;2022-08-07T03:20:11;5.97;;;4.07;;
69981;SDS011;57319;56.274;43.980;2022-08-07T03:22:39;4.28;;;3.80;;
69981;SDS011;57319;56.274;43.980;2022-08-07T03:25:06;8.15;;;3.50;;
69981;SDS011;57319;56.274;43.980;2022-08-07T03:27:33;5.75;;;3.72;;
69981;SDS011;57319;56.274;43.980;2022-08-07T03:29:59;8.43;;;4.13;;
69981;SDS011;57319;56.274;43.980;2022-08-07T03:32:26;6.43;;;4.10;;
69981;SDS011;57319;56.274;43.980;2022-08-07T03:34:58;10.80;;;4.13;;
69981;SDS011;57319;56.274;43.980;2022-08-07T03:37:28;9.32;;;3.92;;
69981;SDS011;57319;56.274;43.980;2022-08-07T03:39:56;5.85;;;3.67;;
69981;SDS011;57319;56.274;43.980;2022-08-07T03:42:23;7.95;;;4.10;;
69981;SDS011;57319;56.274;43.980;2022-08-07T03:44:49;13.57;;;4.72;;
69981;SDS011;57319;56.274;43.980;2022-08-07T03:47:16;6.97;;;3.80;;
69981;SDS011;57319;56.274;43.980;2022-08-07T03:49:43;6.18;;;3.78;;
69981;SDS011;57319;56.274;43.980;2022-08-07T03:52:09;9.30;;;4.10;;
69981;SDS011;57319;56.274;43.980;2022-08-07T03:54:36;4.13;;;3.83;;
69981;SDS011;57319;56.274;43.980;2022-08-07T03:57:02;12.65;;;3.63;;
69981;SDS011;57319;56.274;43.980;2022-08-07T03:59:29;4.97;;;3.63;;
69981;SDS011;57319;56.274;43.980;2022-08-07T04:01:56;7.95;;;3.90;;
69981;SDS011;57319;56.274;43.980;2022-08-07T04:04:23;8.20;;;3.83;;
69981;SDS011;57319;56.274;43.980;2022-08-07T04:06:49;5.32;;;3.60;;
69981;SDS011;57319;56.274;43.980;2022-08-07T04:09:15;5.40;;;3.83;;
69981;SDS011;57319;56.274;43.980;2022-08-07T04:11:43;4.53;;;3.50;;
69981;SDS011;57319;56.274;43.980;2022-08-07T04:14:09;7.22;;;3.90;;
69981;SDS011;57319;56.274;43.980;2022-08-07T04:16:36;10.88;;;4.35;;
69981;SDS011;57319;56.274;43.980;2022-08-07T04:19:02;3.60;;;3.30;;
69981;SDS011;57319;56.274;43.980;2022-08-07T04:21:28;12.48;;;3.75;;
69981;SDS011;57319;56.274;43.980;2022-08-07T04:23:54;10.23;;;4.35;;
69981;SDS011;57319;56.274;43.980;2022-08-07T04:26:20;15.48;;;4.15;;
69981;SDS011;57319;56.274;43.980;2022-08-07T04:28:45;11.30;;;3.85;;
69981;SDS011;57319;56.274;43.980;2022-08-07T04:31:11;7.70;;;4.00;;
69981;SDS011;57319;56.274;43.980;2022-08-07T04:33:37;4.10;;;3.58;;
69981;SDS011;57319;56.274;43.980;2022-08-07T04:36:04;8.18;;;3.75;;
69981;SDS011;57319;56.274;43.980;2022-08-07T04:38:33;8.57;;;3.67;;
69981;SDS011;57319;56.274;43.980;2022-08-07T04:40:59;11.68;;;3.70;;
69981;SDS011;57319;56.274;43.980;2022-08-07T04:43:26;6.03;;;3.20;;
69981;SDS011;57319;56.274;43.980;2022-08-07T04:46:02;5.53;;;3.40;;
69981;SDS011;57319;56.274;43.980;2022-08-07T04:51:23;4.43;;;3.55;;
69981;SDS011;57319;56.274;43.980;2022-08-07T04:54:44;8.65;;;3.25;;
69981;SDS011;57319;56.274;43.980;2022-08-07T05:00:19;7.47;;;3.33;;
69981;SDS011;57319;56.274;43.980;2022-08-07T05:05:45;15.93;;;3.33;;
69981;SDS011;57319;56.274;43.980;2022-08-07T05:08:25;7.03;;;3.45;;
69981;SDS011;57319;56.274;43.980;2022-08-07T05:10:57;13.68;;;3.78;;
69981;SDS011;57319;56.274;43.980;2022-08-07T05:13:30;11.77;;;4.10;;
69981;SDS011;57319;56.274;43.980;2022-08-07T05:16:02;7.28;;;3.60;;
69981;SDS011;57319;56.274;43.980;2022-08-07T05:18:33;6.30;;;3.28;;
69981;SDS011;57319;56.274;43.980;2022-08-07T05:21:04;13.88;;;3.75;;
69981;SDS011;57319;56.274;43.980;2022-08-07T05:23:38;6.25;;;3.20;;
69981;SDS011;57319;56.274;43.980;2022-08-07T05:26:10;11.48;;;3.67;;
69981;SDS011;57319;56.274;43.980;2022-08-07T05:28:38;8.20;;;3.75;;
69981;SDS011;57319;56.274;43.980;2022-08-07T05:31:05;13.88;;;4.28;;
69981;SDS011;57319;56.274;43.980;2022-08-07T05:33:32;25.02;;;4.22;;
69981;SDS011;57319;56.274;43.980;2022-08-07T05:36:00;13.75;;;4.38;;
69981;SDS011;57319;56.274;43.980;2022-08-07T05:38:28;6.85;;;3.63;;
69981;SDS011;57319;56.274;43.980;2022-08-07T05:40:54;4.32;;;3.55;;
69981;SDS011;57319;56.274;43.980;2022-08-07T05:43:20;9.50;;;3.13;;
69981;SDS011;57319;56.274;43.980;2022-08-07T05:45:46;7.65;;;3.90;;
69981;SDS011;57319;56.274;43.980;2022-08-07T05:48:13;8.43;;;4.20;;
69981;SDS011;57319;56.274;43.980;2022-08-07T05:50:39;8.57;;;3.75;;
69981;SDS011;57319;56.274;43.980;2022-08-07T05:53:06;11.43;;;4.07;;
69981;SDS011;57319;56.274;43.980;2022-08-07T05:55:33;9.70;;;4.20;;
69981;SDS011;57319;56.274;43.980;2022-08-07T05:58:00;9.40;;;3.35;;
69981;SDS011;57319;56.274;43.980;2022-08-07T06:00:26;13.38;;;3.85;;
69981;SDS011;57319;56.274;43.980;2022-08-07T06:02:53;9.05;;;3.88;;
69981;SDS011;57319;56.274;43.980;2022-08-07T06:05:20;14.85;;;4.55;;
69981;SDS011;57319;56.274;43.980;2022-08-07T06:07:50;22.13;;;5.50;;
69981;SDS011;57319;56.274;43.980;2022-08-07T06:10:17;14.10;;;4.85;;
69981;SDS011;57319;56.274;43.980;2022-08-07T06:12:42;8.05;;;3.50;;
69981;SDS011;57319;56.274;43.980;2022-08-07T06:15:08;15.93;;;3.83;;
69981;SDS011;57319;56.274;43.980;2022-08-07T06:17:38;5.20;;;3.50;;
69981;SDS011;57319;56.274;43.980;2022-08-07T06:20:05;10.40;;;4.15;;
69981;SDS011;57319;56.274;43.980;2022-08-07T06:22:33;10.07;;;3.25;;
69981;SDS011;57319;56.274;43.980;2022-08-07T06:25:01;12.00;;;4.03;;
69981;SDS011;57319;56.274;43.980;2022-08-07T06:27:29;17.83;;;4.35;;
69981;SDS011;57319;56.274;43.980;2022-08-07T06:29:55;13.27;;;4.70;;
69981;SDS011;57319;56.274;43.980;2022-08-07T06:32:21;4.80;;;3.75;;
69981;SDS011;57319;56.274;43.980;2022-08-07T06:34:46;11.52;;;3.65;;
69981;SDS011;57319;56.274;43.980;2022-08-07T06:37:12;5.15;;;3.75;;
69981;SDS011;57319;56.274;43.980;2022-08-07T06:39:38;14.20;;;3.60;;
69981;SDS011;57319;56.274;43.980;2022-08-07T06:44:35;11.18;;;3.88;;
69981;SDS011;57319;56.274;43.980;2022-08-07T06:47:02;7.85;;;3.80;;
69981;SDS011;57319;56.274;43.980;2022-08-07T06:49:28;6.60;;;3.13;;
69981;SDS011;57319;56.274;43.980;2022-08-07T06:51:54;8.63;;;4.65;;
69981;SDS011;57319;56.274;43.980;2022-08-07T06:54:22;4.53;;;4.00;;
69981;SDS011;57319;56.274;43.980;2022-08-07T06:56:50;4.82;;;3.17;;
69981;SDS011;57319;56.274;43.980;2022-08-07T06:59:23;9.50;;;3.70;;
69981;SDS011;57319;56.274;43.980;2022-08-07T07:01:51;6.80;;;3.17;;
69981;SDS011;57319;56.274;43.980;2022-08-07T07:04:18;3.45;;;3.15;;
69981;SDS011;57319;56.274;43.980;2022-08-07T07:06:44;23.55;;;4.18;;
69981;SDS011;57319;56.274;43.980;2022-08-07T07:14:20;8.65;;;3.53;;
69981;SDS011;57319;56.274;43.980;2022-08-07T07:16:51;7.15;;;2.90;;
69981;SDS011;57319;56.274;43.980;2022-08-07T07:19:30;6.57;;;3.05;;
69981;SDS011;57319;56.274;43.980;2022-08-07T07:21:59;10.77;;;2.72;;
69981;SDS011;57319;56.274;43.980;2022-08-07T07:24:26;9.23;;;3.03;;
69981;SDS011;57319;56.274;43.980;2022-08-07T07:26:53;3.28;;;3.00;;
69981;SDS011;57319;56.274;43.980;2022-08-07T07:29:22;7.00;;;3.00;;
69981;SDS011;57319;56.274;43.980;2022-08-07T07:31:51;7.30;;;3.30;;
69981;SDS011;57319;56.274;43.980;2022-08-07T07:34:24;7.47;;;3.50;;
69981;SDS011;57319;56.274;43.980;2022-08-07T07:37:01;6.95;;;2.78;;
69981;SDS011;57319;56.274;43.980;2022-08-07T07:39:28;8.13;;;3.20;;
69981;SDS011;57319;56.274;43.980;2022-08-07T07:41:55;11.30;;;2.92;;
69981;SDS011;57319;56.274;43.980;2022-08-07T07:44:23;8.75;;;3.22;;
69981;SDS011;57319;56.274;43.980;2022-08-07T07:46:51;6.95;;;3.55;;
69981;SDS011;57319;56.274;43.980;2022-08-07T07:49:19;6.05;;;2.80;;
69981;SDS011;57319;56.274;43.980;2022-08-07T07:51:47;3.38;;;2.58;;
69981;SDS011;57319;56.274;43.980;2022-08-07T07:54:13;3.35;;;2.65;;
69981;SDS011;57319;56.274;43.980;2022-08-07T07:56:42;8.75;;;2.50;;
69981;SDS011;57319;56.274;43.980;2022-08-07T07:59:08;5.00;;;2.83;;
69981;SDS011;57319;56.274;43.980;2022-08-07T08:01:37;4.63;;;2.80;;
69981;SDS011;57319;56.274;43.980;2022-08-07T08:04:07;2.72;;;2.50;;
69981;SDS011;57319;56.274;43.980;2022-08-07T08:06:32;9.35;;;2.60;;
69981;SDS011;57319;56.274;43.980;2022-08-07T08:09:01;6.38;;;2.55;;
69981;SDS011;57319;56.274;43.980;2022-08-07T08:11:28;11.18;;;3.15;;
69981;SDS011;57319;56.274;43.980;2022-08-07T08:13:54;3.15;;;2.85;;
69981;SDS011;57319;56.274;43.980;2022-08-07T08:16:21;9.52;;;2.88;;
69981;SDS011;57319;56.274;43.980;2022-08-07T08:18:52;8.30;;;2.88;;
69981;SDS011;57319;56.274;43.980;2022-08-07T08:21:20;5.47;;;2.88;;
69981;SDS011;57319;56.274;43.980;2022-08-07T08:24:06;9.90;;;3.08;;
69981;SDS011;57319;56.274;43.980;2022-08-07T08:26:52;9.00;;;4.05;;
69981;SDS011;57319;56.274;43.980;2022-08-07T08:29:30;7.47;;;3.05;;
69981;SDS011;57319;56.274;43.980;2022-08-07T08:32:01;14.65;;;3.20;;
69981;SDS011;57319;56.274;43.980;2022-08-07T08:34:30;11.25;;;3.40;;
69981;SDS011;57319;56.274;43.980;2022-08-07T08:36:57;8.32;;;3.10;;
69981;SDS011;57319;56.274;43.980;2022-08-07T08:39:26;4.25;;;3.05;;
69981;SDS011;57319;56.274;43.980;2022-08-07T08:41:56;3.53;;;2.80;;
69981;SDS011;57319;56.274;43.980;2022-08-07T08:44:46;8.68;;;2.83;;
69981;SDS011;57319;56.274;43.980;2022-08-07T08:52:35;4.85;;;2.70;;
69981;SDS011;57319;56.274;43.980;2022-08-07T09:00:22;9.68;;;2.50;;
69981;SDS011;57319;56.274;43.980;2022-08-07T09:02:57;4.50;;;2.80;;
69981;SDS011;57319;56.274;43.980;2022-08-07T09:05:45;12.90;;;2.60;;
69981;SDS011;57319;56.274;43.980;2022-08-07T09:17:30;4.88;;;2.47;;
69981;SDS011;57319;56.274;43.980;2022-08-07T09:22:59;4.25;;;2.55;;
69981;SDS011;57319;56.274;43.980;2022-08-07T09:25:51;5.20;;;2.78;;
69981;SDS011;57319;56.274;43.980;2022-08-07T09:28:34;10.20;;;2.63;;
69981;SDS011;57319;56.274;43.980;2022-08-07T09:31:09;4.47;;;2.40;;
69981;SDS011;57319;56.274;43.980;2022-08-07T09:36:15;7.05;;;3.15;;
69981;SDS011;57319;56.274;43.980;2022-08-07T09:44:50;9.40;;;3.00;;
69981;SDS011;57319;56.274;43.980;2022-08-07T09:53:10;9.00;;;2.78;;
69981;SDS011;57319;56.274;43.980;2022-08-07T09:58:58;8.40;;;2.78;;
69981;SDS011;57319;56.274;43.980;2022-08-07T10:26:29;6.68;;;2.42;;
69981;SDS011;57319;56.274;43.980;2022-08-07T10:32:37;4.93;;;2.60;;
69981;SDS011;57319;56.274;43.980;2022-08-07T10:40:55;6.45;;;2.58;;
69981;SDS011;57319;56.274;43.980;2022-08-07T10:43:41;5.47;;;2.40;;
69981;SDS011;57319;56.274;43.980;2022-08-07T10:46:23;4.30;;;2.58;;
69981;SDS011;57319;56.274;43.980;2022-08-07T11:00:57;2.47;;;2.20;;
69981;SDS011;57319;56.274;43.980;2022-08-07T11:03:41;8.18;;;2.10;;
69981;SDS011;57319;56.274;43.980;2022-08-07T11:06:25;8.30;;;2.95;;
69981;SDS011;57319;56.274;43.980;2022-08-07T11:11:30;15.15;;;3.47;;
69981;SDS011;57319;56.274;43.980;2022-08-07T11:14:06;2.75;;;2.55;;
69981;SDS011;57319;56.274;43.980;2022-08-07T11:19:47;2.42;;;2.30;;
69981;SDS011;57319;56.274;43.980;2022-08-07T11:25:15;13.73;;;3.28;;
69981;SDS011;57319;56.274;43.980;2022-08-07T11:27:53;6.55;;;2.65;;
69981;SDS011;57319;56.274;43.980;2022-08-07T11:33:41;9.43;;;2.47;;
69981;SDS011;57319;56.274;43.980;2022-08-07T11:36:15;6.57;;;2.80;;
69981;SDS011;57319;56.274;43.980;2022-08-07T11:38:57;2.60;;;2.50;;
69981;SDS011;57319;56.274;43.980;2022-08-07T11:41:28;5.28;;;2.45;;
69981;SDS011;57319;56.274;43.980;2022-08-07T11:44:13;15.85;;;2.88;;
69981;SDS011;57319;56.274;43.980;2022-08-07T11:47:03;10.07;;;2.38;;
69981;SDS011;57319;56.274;43.980;2022-08-07T11:49:59;6.32;;;2.50;;
69981;SDS011;57319;56.274;43.980;2022-08-07T11:52:38;2.58;;;2.28;;
69981;SDS011;57319;56.274;43.980;2022-08-07T11:55:25;4.18;;;2.85;;
69981;SDS011;57319;56.274;43.980;2022-08-07T12:07:12;9.93;;;2.50;;
69981;SDS011;57319;56.274;43.980;2022-08-07T12:09:48;6.97;;;2.78;;
69981;SDS011;57319;56.274;43.980;2022-08-07T12:12:27;3.55;;;2.53;;
69981;SDS011;57319;56.274;43.980;2022-08-07T12:15:12;6.80;;;2.90;;
69981;SDS011;57319;56.274;43.980;2022-08-07T12:17:44;10.02;;;2.92;;
69981;SDS011;57319;56.274;43.980;2022-08-07T12:20:21;6.47;;;2.65;;
69981;SDS011;57319;56.274;43.980;2022-08-07T12:23:13;4.43;;;2.55;;
69981;SDS011;57319;56.274;43.980;2022-08-07T12:26:04;2.80;;;2.38;;
69981;SDS011;57319;56.274;43.980;2022-08-07T12:31:25;6.32;;;2.80;;
69981;SDS011;57319;56.274;43.980;2022-08-07T12:33:59;7.25;;;2.90;;
69981;SDS011;57319;56.274;43.980;2022-08-07T12:36:26;14.75;;;3.00;;
69981;SDS011;57319;56.274;43.980;2022-08-07T12:38:53;6.15;;;2.70;;
69981;SDS011;57319;56.274;43.980;2022-08-07T12:41:22;3.90;;;2.55;;
69981;SDS011;57319;56.274;43.980;2022-08-07T12:43:49;2.65;;;2.55;;
69981;SDS011;57319;56.274;43.980;2022-08-07T12:52:18;7.82;;;2.83;;
69981;SDS011;57319;56.274;43.980;2022-08-07T12:55:13;7.10;;;2.95;;
69981;SDS011;57319;56.274;43.980;2022-08-07T12:57:46;4.60;;;2.80;;
69981;SDS011;57319;56.274;43.980;2022-08-07T13:00:13;3.72;;;2.72;;
69981;SDS011;57319;56.274;43.980;2022-08-07T13:02:45;6.65;;;2.55;;
69981;SDS011;57319;56.274;43.980;2022-08-07T13:08:27;5.60;;;2.80;;
69981;SDS011;57319;56.274;43.980;2022-08-07T13:16:49;11.15;;;2.42;;
69981;SDS011;57319;56.274;43.980;2022-08-07T13:19:20;5.50;;;2.80;;
69981;SDS011;57319;56.274;43.980;2022-08-07T13:22:03;10.13;;;2.40;;
69981;SDS011;57319;56.274;43.980;2022-08-07T13:24:52;6.25;;;3.00;;
69981;SDS011;57319;56.274;43.980;2022-08-07T13:27:39;4.80;;;2.70;;
69981;SDS011;57319;56.274;43.980;2022-08-07T13:30:12;4.55;;;2.78;;
69981;SDS011;57319;56.274;43.980;2022-08-07T13:35:45;11.48;;;2.90;;
69981;SDS011;57319;56.274;43.980;2022-08-07T13:41:05;6.47;;;3.28;;
69981;SDS011;57319;56.274;43.980;2022-08-07T13:43:34;10.35;;;3.70;;
69981;SDS011;57319;56.274;43.980;2022-08-07T13:46:06;7.28;;;2.58;;
69981;SDS011;57319;56.274;43.980;2022-08-07T13:48:35;4.07;;;3.15;;
69981;SDS011;57319;56.274;43.980;2022-08-07T13:51:03;10.40;;;2.83;;
69981;SDS011;57319;56.274;43.980;2022-08-07T13:53:34;15.50;;;2.80;;
69981;SDS011;57319;56.274;43.980;2022-08-07T13:56:04;9.73;;;2.80;;
69981;SDS011;57319;56.274;43.980;2022-08-07T13:58:36;8.70;;;2.75;;
69981;SDS011;57319;56.274;43.980;2022-08-07T14:01:23;9.75;;;2.72;;
69981;SDS011;57319;56.274;43.980;2022-08-07T14:04:08;6.53;;;3.10;;
69981;SDS011;57319;56.274;43.980;2022-08-07T14:06:38;2.67;;;2.50;;
69981;SDS011;57319;56.274;43.980;2022-08-07T14:09:26;3.00;;;2.70;;
69981;SDS011;57319;56.274;43.980;2022-08-07T14:11:55;3.42;;;3.15;;
69981;SDS011;57319;56.274;43.980;2022-08-07T14:14:37;4.68;;;3.00;;
69981;SDS011;57319;56.274;43.980;2022-08-07T14:17:06;9.50;;;3.25;;
69981;SDS011;57319;56.274;43.980;2022-08-07T14:19:36;6.75;;;3.33;;
69981;SDS011;57319;56.274;43.980;2022-08-07T14:22:12;16.55;;;3.33;;
69981;SDS011;57319;56.274;43.980;2022-08-07T14:24:44;7.57;;;2.80;;
69981;SDS011;57319;56.274;43.980;2022-08-07T14:27:15;3.10;;;2.80;;
69981;SDS011;57319;56.274;43.980;2022-08-07T14:29:52;8.27;;;3.50;;
69981;SDS011;57319;56.274;43.980;2022-08-07T14:32:21;10.73;;;3.15;;
69981;SDS011;57319;56.274;43.980;2022-08-07T14:34:50;7.68;;;2.70;;
69981;SDS011;57319;56.274;43.980;2022-08-07T14:37:18;3.03;;;2.75;;
69981;SDS011;57319;56.274;43.980;2022-08-07T14:39:46;5.97;;;2.97;;
69981;SDS011;57319;56.274;43.980;2022-08-07T14:42:13;6.20;;;2.92;;
69981;SDS011;57319;56.274;43.980;2022-08-07T14:44:43;6.38;;;3.05;;
69981;SDS011;57319;56.274;43.980;2022-08-07T14:47:17;4.25;;;2.88;;
69981;SDS011;57319;56.274;43.980;2022-08-07T14:49:44;3.33;;;3.03;;
69981;SDS011;57319;56.274;43.980;2022-08-07T14:52:12;7.85;;;3.13;;
69981;SDS011;57319;56.274;43.980;2022-08-07T14:54:39;3.35;;;3.03;;
69981;SDS011;57319;56.274;43.980;2022-08-07T14:57:10;13.85;;;3.72;;
69981;SDS011;57319;56.274;43.980;2022-08-07T14:59:38;3.45;;;3.10;;
69981;SDS011;57319;56.274;43.980;2022-08-07T15:02:24;8.25;;;3.33;;
69981;SDS011;57319;56.274;43.980;2022-08-07T15:04:51;9.38;;;3.00;;
69981;SDS011;57319;56.274;43.980;2022-08-07T15:07:21;10.20;;;3.40;;
69981;SDS011;57319;56.274;43.980;2022-08-07T15:09:50;3.78;;;3.20;;
69981;SDS011;57319;56.274;43.980;2022-08-07T15:12:21;10.23;;;3.63;;
69981;SDS011;57319;56.274;43.980;2022-08-07T15:14:56;3.30;;;3.03;;
69981;SDS011;57319;56.274;43.980;2022-08-07T15:17:32;6.10;;;3.08;;
69981;SDS011;57319;56.274;43.980;2022-08-07T15:20:04;3.30;;;3.00;;
69981;SDS011;57319;56.274;43.980;2022-08-07T15:22:52;11.52;;;3.20;;
69981;SDS011;57319;56.274;43.980;2022-08-07T15:25:22;15.43;;;3.30;;
69981;SDS011;57319;56.274;43.980;2022-08-07T15:27:51;6.00;;;3.30;;
69981;SDS011;57319;56.274;43.980;2022-08-07T15:30:21;3.17;;;2.80;;
69981;SDS011;57319;56.274;43.980;2022-08-07T15:32:50;6.13;;;3.03;;
69981;SDS011;57319;56.274;43.980;2022-08-07T15:35:18;5.47;;;3.10;;
69981;SDS011;57319;56.274;43.980;2022-08-07T15:37:50;7.22;;;3.10;;
69981;SDS011;57319;56.274;43.980;2022-08-07T15:40:19;8.88;;;3.20;;
69981;SDS011;57319;56.274;43.980;2022-08-07T15:42:55;12.50;;;3.42;;
69981;SDS011;57319;56.274;43.980;2022-08-07T15:45:33;9.02;;;3.53;;
69981;SDS011;57319;56.274;43.980;2022-08-07T15:48:04;5.60;;;2.97;;
69981;SDS011;57319;56.274;43.980;2022-08-07T15:50:34;11.18;;;3.28;;
69981;SDS011;57319;56.274;43.980;2022-08-07T15:53:07;8.90;;;3.30;;
69981;SDS011;57319;56.274;43.980;2022-08-07T15:55:39;4.68;;;3.67;;
69981;SDS011;57319;56.274;43.980;2022-08-07T15:58:08;10.65;;;3.25;;
69981;SDS011;57319;56.274;43.980;2022-08-07T16:00:37;10.70;;;3.33;;
69981;SDS011;57319;56.274;43.980;2022-08-07T16:03:10;10.15;;;3.40;;
69981;SDS011;57319;56.274;43.980;2022-08-07T16:05:43;9.07;;;3.55;;
69981;SDS011;57319;56.274;43.980;2022-08-07T16:08:14;15.50;;;4.20;;
69981;SDS011;57319;56.274;43.980;2022-08-07T16:10:44;10.43;;;3.90;;
69981;SDS011;57319;56.274;43.980;2022-08-07T16:19:44;14.70;;;4.53;;
69981;SDS011;57319;56.274;43.980;2022-08-07T16:22:38;12.52;;;4.20;;
69981;SDS011;57319;56.274;43.980;2022-08-07T16:28:11;9.77;;;4.03;;
69981;SDS011;57319;56.274;43.980;2022-08-07T16:33:36;10.02;;;4.30;;
69981;SDS011;57319;56.274;43.980;2022-08-07T16:50:32;31.45;;;5.03;;
69981;SDS011;57319;56.274;43.980;2022-08-07T16:53:21;19.70;;;4.65;;
69981;SDS011;57319;56.274;43.980;2022-08-07T17:04:33;12.23;;;4.80;;
69981;SDS011;57319;56.274;43.980;2022-08-07T17:07:22;17.25;;;4.75;;
69981;SDS011;57319;56.274;43.980;2022-08-07T17:10:06;25.25;;;5.20;;
69981;SDS011;57319;56.274;43.980;2022-08-07T17:12:43;19.10;;;5.13;;
69981;SDS011;57319;56.274;43.980;2022-08-07T17:17:48;17.25;;;4.25;;
69981;SDS011;57319;56.274;43.980;2022-08-07T17:20:31;7.43;;;5.18;;
69981;SDS011;57319;56.274;43.980;2022-08-07T17:26:02;35.22;;;5.10;;
69981;SDS011;57319;56.274;43.980;2022-08-07T17:31:11;21.17;;;4.85;;
69981;SDS011;57319;56.274;43.980;2022-08-07T17:33:44;25.92;;;4.55;;
69981;SDS011;57319;56.274;43.980;2022-08-07T17:36:25;22.75;;;4.80;;
69981;SDS011;57319;56.274;43.980;2022-08-07T17:39:07;27.88;;;5.18;;
69981;SDS011;57319;56.274;43.980;2022-08-07T17:42:14;16.88;;;5.82;;
69981;SDS011;57319;56.274;43.980;2022-08-07T17:44:46;13.77;;;4.82;;
69981;SDS011;57319;56.274;43.980;2022-08-07T17:47:16;10.30;;;5.00;;
69981;SDS011;57319;56.274;43.980;2022-08-07T17:49:46;17.00;;;4.28;;
69981;SDS011;57319;56.274;43.980;2022-08-07T17:52:29;15.50;;;4.70;;
69981;SDS011;57319;56.274;43.980;2022-08-07T18:00:08;22.83;;;5.15;;
69981;SDS011;57319;56.274;43.980;2022-08-07T18:02:55;17.85;;;4.93;;
69981;SDS011;57319;56.274;43.980;2022-08-07T18:05:33;18.88;;;5.55;;
69981;SDS011;57319;56.274;43.980;2022-08-07T18:10:35;6.45;;;4.97;;
69981;SDS011;57319;56.274;43.980;2022-08-07T18:18:44;19.60;;;5.60;;